createdAt,value
2022-10-11T00:04:27.939Z,96916.22
2022-10-11T00:09:30.874Z,96876.44
2022-10-11T00:14:34.285Z,96906.91
2022-10-11T00:19:36.391Z,96871.06
2022-10-11T00:24:38.482Z,96898.66
2022-10-11T00:29:40.859Z,96868.38
2022-10-11T00:34:43.270Z,96866.25
2022-10-11T00:39:45.661Z,96851.13
2022-10-11T00:44:49.539Z,96883.91
2022-10-11T00:49:58.233Z,96854.22
2022-10-11T00:55:05.693Z,96879.00
2022-10-11T01:00:11.514Z,96854.00
2022-10-11T01:05:29.488Z,96882.38
2022-10-11T01:10:33.132Z,96861.00
2022-10-11T01:15:45.909Z,96862.72
2022-10-11T01:21:03.326Z,96875.38
2022-10-11T01:26:29.066Z,96838.00
2022-10-11T01:32:04.247Z,96867.09
2022-10-11T01:37:14.910Z,96817.59
2022-10-11T01:42:19.367Z,96863.97
2022-10-11T01:47:23.431Z,96852.50
2022-10-11T01:52:32.385Z,96830.88
2022-10-11T01:57:52.822Z,96844.16
2022-10-11T02:02:58.076Z,96841.47
2022-10-11T02:08:16.724Z,96778.13
2022-10-11T02:13:28.046Z,96835.38
2022-10-11T02:18:34.053Z,96831.84
2022-10-11T02:23:50.443Z,96822.75
2022-10-11T02:28:56.910Z,96806.69
2022-10-11T02:34:11.329Z,96834.69
2022-10-11T02:39:28.883Z,96834.69
2022-10-11T02:44:38.422Z,96832.72
2022-10-11T02:49:40.714Z,96800.03
2022-10-11T02:54:42.946Z,96818.88
2022-10-11T02:59:45.210Z,96813.47
2022-10-11T03:04:48.111Z,96816.50
2022-10-11T03:09:50.291Z,96799.31
2022-10-11T03:14:53.290Z,96800.09
2022-10-11T03:19:55.722Z,96800.16
2022-10-11T03:25:02.692Z,96810.78
2022-10-11T03:30:07.139Z,96787.69
2022-10-11T03:35:09.517Z,96791.72
2022-10-11T03:40:13.037Z,96775.84
2022-10-11T03:45:15.391Z,96793.13
2022-10-11T03:50:17.718Z,96769.06
2022-10-11T03:55:19.871Z,96799.84
2022-10-11T04:00:22.155Z,96787.25
2022-10-11T04:05:24.535Z,96809.03
2022-10-11T04:10:26.718Z,96807.13
2022-10-11T04:15:28.873Z,96766.78
2022-10-11T04:20:32.385Z,96781.50
2022-10-11T04:25:34.590Z,96804.72
2022-10-11T04:30:37.037Z,96812.50
2022-10-11T04:35:39.318Z,96803.16
2022-10-11T04:40:41.501Z,96793.03
2022-10-11T04:45:44.199Z,96809.19
2022-10-11T04:50:46.486Z,96827.91
2022-10-11T04:56:03.192Z,96780.44
2022-10-11T05:01:05.756Z,96814.19
2022-10-11T05:06:08.275Z,96787.38
2022-10-11T05:11:16.311Z,96829.91
2022-10-11T05:16:18.685Z,96802.72
2022-10-11T05:21:25.860Z,96830.69
2022-10-11T05:26:28.977Z,96807.38
2022-10-11T05:31:31.287Z,96819.03
2022-10-11T05:36:33.575Z,96821.94
2022-10-11T05:41:35.874Z,96792.69
2022-10-11T05:46:39.069Z,96827.88
2022-10-11T05:51:41.245Z,96818.91
2022-10-11T05:57:02.050Z,96822.94
2022-10-11T06:02:04.435Z,96840.25
2022-10-11T06:07:06.802Z,96813.28
2022-10-11T06:12:09.093Z,96831.41
2022-10-11T06:17:11.315Z,96776.03
2022-10-11T06:22:13.714Z,96794.28
2022-10-11T06:27:16.032Z,96794.63
2022-10-11T06:32:18.705Z,96815.19
2022-10-11T06:37:20.985Z,96801.19
2022-10-11T06:42:23.491Z,96786.53
2022-10-11T06:47:30.505Z,96780.59
2022-10-11T06:52:32.881Z,96801.09
2022-10-11T06:57:35.283Z,96805.72
2022-10-11T07:02:37.584Z,96784.22
2022-10-11T07:07:39.693Z,96764.13
2022-10-11T07:12:45.143Z,96780.31
2022-10-11T07:17:47.410Z,96781.88
2022-10-11T07:22:49.802Z,96777.00
2022-10-11T07:27:52.066Z,96775.41
2022-10-11T07:33:31.239Z,96801.38
2022-10-11T07:38:43.403Z,96757.09
2022-10-11T07:43:48.229Z,96737.91
2022-10-11T07:48:50.669Z,96765.91
2022-10-11T07:54:07.796Z,96779.63
2022-10-11T07:59:11.870Z,96803.88
2022-10-11T08:04:14.367Z,96782.72
2022-10-11T08:09:16.608Z,96765.88
2022-10-11T08:14:19.242Z,96761.94
2022-10-11T08:19:27.951Z,96761.88
2022-10-11T08:24:48.409Z,96724.59
2022-10-11T08:29:58.592Z,96723.38
2022-10-11T08:40:59.946Z,96756.84
2022-10-11T08:46:13.982Z,96727.91
2022-10-11T08:52:03.077Z,96767.97
2022-10-11T08:57:06.801Z,96727.75
2022-10-11T09:15:44.796Z,96745.53
2022-10-11T09:21:08.471Z,96746.81
2022-10-11T09:26:49.394Z,96745.69
2022-10-11T11:40:46.929Z,96672.06
2022-10-11T11:53:31.360Z,96700.78
2022-10-11T11:59:12.935Z,96704.47
2022-10-11T12:04:31.531Z,96705.53
2022-10-11T12:09:36.171Z,96646.69
2022-10-11T12:14:42.924Z,96665.06
2022-10-11T12:20:12.867Z,96701.25
2022-10-11T12:25:18.515Z,96700.59
2022-10-11T12:31:00.353Z,96701.78
2022-10-11T12:36:22.985Z,96661.50
2022-10-11T12:42:11.566Z,96646.44
2022-10-11T12:47:37.121Z,96635.00
2022-10-11T12:53:09.461Z,96682.31
2022-10-11T12:59:09.682Z,96679.16
2022-10-11T13:04:12.908Z,96668.16
2022-10-11T13:10:36.841Z,96675.97
2022-10-11T13:15:51.760Z,96618.84
2022-10-11T13:20:54.946Z,96644.84
2022-10-11T13:25:57.636Z,96615.34
2022-10-11T13:37:33.750Z,96674.16
2022-10-11T13:43:00.692Z,96624.03
2022-10-11T13:48:03.532Z,96652.53
2022-10-11T13:53:24.076Z,96629.91
2022-10-11T13:58:36.874Z,96631.75
2022-10-11T14:04:32.752Z,96682.75
2022-10-11T14:09:50.678Z,96630.19
2022-10-11T14:15:16.332Z,96662.09
2022-10-11T14:26:58.889Z,96644.41
2022-10-11T14:32:16.989Z,96641.19
2022-10-11T14:37:19.890Z,96654.09
2022-10-11T14:42:44.384Z,96689.34
2022-10-11T14:47:50.129Z,96662.00
2022-10-11T14:58:51.624Z,96662.66
2022-10-11T15:15:48.096Z,96655.88
2022-10-11T15:21:54.089Z,96681.88
2022-10-11T15:27:08.963Z,96683.66
2022-10-11T15:32:11.415Z,96703.56
2022-10-11T15:37:13.722Z,96662.47
2022-10-11T15:42:16.273Z,96646.19
2022-10-11T15:47:19.436Z,96687.13
2022-10-11T15:52:24.987Z,96646.19
2022-10-11T15:57:28.448Z,96651.75
2022-10-11T16:31:30.748Z,96718.25
2022-10-11T16:36:46.233Z,96722.53
2022-10-11T17:23:31.036Z,96723.69
2022-10-11T17:35:02.768Z,96735.91
2022-10-11T17:40:36.117Z,96788.31
2022-10-11T17:46:43.069Z,96785.50
2022-10-11T17:51:54.927Z,96741.03
2022-10-11T17:57:12.686Z,96830.41
2022-10-11T18:13:47.395Z,96773.47
2022-10-11T18:18:53.313Z,96776.63
2022-10-11T18:23:58.226Z,96814.75
2022-10-11T18:34:20.025Z,96824.38
2022-10-11T18:39:22.385Z,96806.31
2022-10-11T18:44:27.197Z,96778.78
2022-10-11T18:49:29.977Z,96747.19
2022-10-11T18:54:32.216Z,96805.84
2022-10-11T19:10:57.343Z,96800.09
2022-10-11T19:17:01.950Z,96766.59
2022-10-11T19:22:11.672Z,96822.38
2022-10-11T19:27:23.041Z,96796.63
2022-10-11T19:32:25.563Z,96807.88
2022-10-11T19:37:31.156Z,96792.00
2022-10-11T19:42:34.195Z,96791.34
2022-10-11T19:47:51.100Z,96785.41
2022-10-11T19:53:23.209Z,96805.06
2022-10-11T19:58:26.018Z,96836.09
2022-10-11T20:03:28.441Z,96819.00
2022-10-11T20:08:31.560Z,96780.53
2022-10-11T20:13:35.305Z,96781.47
2022-10-11T20:18:59.541Z,96826.63
2022-10-11T20:24:03.706Z,96853.03
2022-10-11T20:29:07.217Z,96824.81
2022-10-11T20:34:10.257Z,96853.69
2022-10-11T20:39:12.381Z,96817.19
2022-10-11T20:44:16.299Z,96844.56
2022-10-11T21:09:25.059Z,96803.50
2022-10-11T21:14:27.474Z,96820.59
2022-10-11T21:19:29.864Z,96791.19
2022-10-11T21:24:32.078Z,96818.81
2022-10-11T21:29:34.508Z,96828.03
2022-10-11T21:34:36.670Z,96801.41
2022-10-11T21:39:38.770Z,96821.03
2022-10-11T21:44:43.463Z,96830.66
2022-10-11T21:49:45.713Z,96814.00
2022-10-11T21:54:47.881Z,96840.81
2022-10-11T21:59:50.209Z,96798.72
2022-10-11T22:04:52.383Z,96810.31
2022-10-11T22:09:54.638Z,96809.38
2022-10-11T22:14:56.784Z,96801.66
2022-10-11T22:19:58.872Z,96808.63
2022-10-11T22:25:01.156Z,96823.22
2022-10-11T22:30:03.828Z,96813.25
2022-10-11T22:35:06.469Z,96811.97
2022-10-11T22:40:09.000Z,96835.00
2022-10-11T22:45:11.305Z,96845.22
2022-10-11T22:50:13.642Z,96825.19
2022-10-11T22:55:19.921Z,96828.28
2022-10-11T23:00:25.515Z,96839.53
2022-10-11T23:05:27.776Z,96851.41
2022-10-11T23:10:30.124Z,96858.34
2022-10-11T23:15:32.278Z,96848.34
2022-10-11T23:20:34.510Z,96846.84
2022-10-11T23:25:36.979Z,96845.28
2022-10-11T23:30:40.229Z,96855.31
2022-10-11T23:35:42.309Z,96863.19
2022-10-11T23:40:44.639Z,96837.00
2022-10-11T23:45:46.940Z,96825.16
2022-10-11T23:50:49.126Z,96837.56
2022-10-11T23:55:52.066Z,96848.59
